createdAt,value
2018-04-28T00:00:42.450Z,4.27
2018-04-28T00:03:12.191Z,5.13
2018-04-28T00:05:41.900Z,3.07
2018-04-28T00:08:11.623Z,4.40
2018-04-28T00:10:41.350Z,6.17
2018-04-28T00:13:11.082Z,5.10
2018-04-28T00:15:40.898Z,3.27
2018-04-28T00:18:10.627Z,5.50
2018-04-28T00:20:40.354Z,4.67
2018-04-28T00:23:10.070Z,4.10
2018-04-28T00:25:40.559Z,4.20
2018-04-28T00:28:16.029Z,5.07
2018-04-28T00:30:47.446Z,3.93
2018-04-28T00:33:18.026Z,5.23
2018-04-28T00:35:48.637Z,3.10
2018-04-28T00:38:18.366Z,3.10
2018-04-28T00:40:48.117Z,4.53
2018-04-28T00:43:18.546Z,4.50
2018-04-28T00:45:54.177Z,4.30
2018-04-28T00:48:24.649Z,3.57
2018-04-28T00:50:55.166Z,3.20
2018-04-28T00:53:24.885Z,2.43
2018-04-28T00:55:55.249Z,2.83
2018-04-28T00:58:30.725Z,3.40
2018-04-28T01:01:02.311Z,3.27
2018-04-28T01:03:37.690Z,1.80
2018-04-28T01:06:07.418Z,2.63
2018-04-28T01:08:37.136Z,5.93
2018-04-28T01:11:06.858Z,3.10
2018-04-28T01:13:39.491Z,5.50
2018-04-28T01:16:09.214Z,4.60
2018-04-28T01:18:41.665Z,3.93
2018-04-28T01:21:19.445Z,3.47
2018-04-28T01:23:54.885Z,1.47
2018-04-28T01:26:30.352Z,7.10
2018-04-28T01:29:12.559Z,3.93
2018-04-28T01:31:42.906Z,2.43
2018-04-28T01:34:15.509Z,2.13
2018-04-28T01:36:45.234Z,2.93
2018-04-28T01:39:14.966Z,4.10
2018-04-28T01:41:45.462Z,3.97
2018-04-28T01:44:18.938Z,2.50
2018-04-28T01:46:48.652Z,3.83
2018-04-28T01:49:18.388Z,3.70
2018-04-28T01:51:48.111Z,2.63
2018-04-28T01:54:33.472Z,2.53
2018-04-28T01:57:06.035Z,3.27
2018-04-28T01:59:41.711Z,2.40
2018-04-28T02:02:11.432Z,3.57
2018-04-28T02:05:01.822Z,2.50
2018-04-28T02:07:32.398Z,3.37
2018-04-28T02:10:02.127Z,4.43
2018-04-28T02:12:32.582Z,1.83
2018-04-28T02:17:59.692Z,2.80
2018-04-28T02:20:31.129Z,3.40
2018-04-28T02:23:15.722Z,3.27
2018-04-28T02:25:46.190Z,2.37
2018-04-28T02:28:30.777Z,4.87
2018-04-28T02:31:06.226Z,3.60
2018-04-28T02:33:35.937Z,4.70
2018-04-28T02:36:24.434Z,3.70
2018-04-28T02:38:58.146Z,6.43
2018-04-28T02:41:45.557Z,3.40
2018-04-28T02:44:20.159Z,1.67
2018-04-28T02:46:51.622Z,3.40
2018-04-28T02:49:27.189Z,4.33
2018-04-28T02:51:56.936Z,3.63
2018-04-28T02:54:26.648Z,4.43
2018-04-28T02:57:12.104Z,3.30
2018-04-28T02:59:41.822Z,3.60
2018-04-28T03:02:12.274Z,2.17
2018-04-28T03:04:47.748Z,2.37
2018-04-28T03:07:36.292Z,6.73
2018-04-28T03:10:06.515Z,3.50
2018-04-28T03:12:36.034Z,3.53
2018-04-28T03:15:07.446Z,4.57
2018-04-28T03:17:42.820Z,2.90
2018-04-28T03:20:15.188Z,3.73
2018-04-28T03:22:44.702Z,2.97
2018-04-28T03:25:19.096Z,5.07
2018-04-28T03:28:05.346Z,3.13
2018-04-28T03:30:36.593Z,2.57
2018-04-28T03:33:09.974Z,2.47
2018-04-28T03:35:54.360Z,5.73
2018-04-28T03:38:23.865Z,3.00
2018-04-28T03:40:54.119Z,1.93
2018-04-28T03:43:29.482Z,3.53
2018-04-28T03:46:02.829Z,2.17
2018-04-28T03:48:34.314Z,1.90
2018-04-28T03:51:09.744Z,6.37
2018-04-28T03:53:42.251Z,5.50
2018-04-28T03:56:12.477Z,3.33
2018-04-28T03:58:47.731Z,4.20
2018-04-28T04:01:22.986Z,1.80
2018-04-28T04:03:58.247Z,2.80
2018-04-28T04:06:30.453Z,2.17
2018-04-28T04:08:59.979Z,2.63
2018-04-28T04:11:49.292Z,4.77
2018-04-28T04:14:20.549Z,2.20
2018-04-28T04:17:05.799Z,3.13
2018-04-28T04:19:41.113Z,3.97
2018-04-28T04:22:11.342Z,3.43
2018-04-28T04:24:43.595Z,3.40
2018-04-28T04:27:17.954Z,2.27
2018-04-28T04:29:53.324Z,4.00
2018-04-28T04:32:22.838Z,4.00
2018-04-28T04:35:08.961Z,7.53
2018-04-28T04:37:38.505Z,4.97
2018-04-28T04:40:19.757Z,4.47
2018-04-28T04:43:04.237Z,2.83
2018-04-28T04:45:36.624Z,6.63
2018-04-28T04:48:25.910Z,4.97
2018-04-28T04:51:01.174Z,4.67
2018-04-28T04:53:46.298Z,2.67
2018-04-28T04:56:16.574Z,5.13
2018-04-28T04:58:50.104Z,4.33
2018-04-28T05:01:21.475Z,2.43
2018-04-28T05:03:52.731Z,1.90
2018-04-28T05:06:26.987Z,2.13
2018-04-28T05:08:56.506Z,2.10
2018-04-28T05:11:28.837Z,3.50
2018-04-28T05:13:58.363Z,2.77
2018-04-28T05:16:28.645Z,3.30
2018-04-28T05:19:03.998Z,2.67
2018-04-28T05:21:49.048Z,3.70
2018-04-28T05:24:24.534Z,2.17
2018-04-28T05:26:55.751Z,3.57
2018-04-28T05:29:32.950Z,3.43
2018-04-28T05:32:08.394Z,5.00
2018-04-28T05:34:38.633Z,2.70
2018-04-28T05:40:14.510Z,3.43
2018-04-28T05:42:49.873Z,3.20
2018-04-28T05:45:34.262Z,2.87
2018-04-28T05:48:05.513Z,2.27
2018-04-28T05:50:40.765Z,7.07
2018-04-28T05:53:11.544Z,2.97
2018-04-28T05:55:46.905Z,3.27
2018-04-28T05:58:19.162Z,4.83
2018-04-28T06:00:57.109Z,1.97
2018-04-28T06:03:30.374Z,3.33
2018-04-28T06:06:18.645Z,2.30
2018-04-28T06:08:53.894Z,2.63
2018-04-28T06:11:25.130Z,3.27
2018-04-28T06:13:56.451Z,1.87
2018-04-28T06:16:27.634Z,1.63
2018-04-28T06:19:15.842Z,2.33
2018-04-28T06:21:45.364Z,2.33
2018-04-28T06:24:14.866Z,1.50
2018-04-28T06:26:44.378Z,2.73
2018-04-28T06:29:13.908Z,2.23
2018-04-28T06:31:43.416Z,3.43
2018-04-28T06:34:12.930Z,2.93
2018-04-28T06:36:42.458Z,3.80
2018-04-28T06:39:11.993Z,0.93
2018-04-28T06:41:41.504Z,2.40
2018-04-28T06:44:11.086Z,3.67
2018-04-28T06:46:40.599Z,3.63
2018-04-28T06:49:10.101Z,2.97
2018-04-28T06:51:39.617Z,5.83
2018-04-28T06:54:09.138Z,3.57
2018-04-28T06:56:38.653Z,3.30
2018-04-28T06:59:08.174Z,3.47
2018-04-28T07:01:37.693Z,5.33
2018-04-28T07:04:07.273Z,3.60
2018-04-28T07:06:36.782Z,4.87
2018-04-28T07:09:07.902Z,2.30
2018-04-28T07:11:37.422Z,2.53
2018-04-28T07:14:06.974Z,5.77
2018-04-28T07:16:36.482Z,2.33
2018-04-28T07:19:06.010Z,3.17
2018-04-28T07:21:35.649Z,3.57
2018-04-28T07:24:05.145Z,4.00
2018-04-28T07:26:34.682Z,2.37
2018-04-28T07:29:04.202Z,5.53
2018-04-28T07:31:33.732Z,6.40
2018-04-28T07:34:03.290Z,2.50
2018-04-28T07:36:32.807Z,2.80
2018-04-28T07:39:03.100Z,3.57
2018-04-28T07:41:32.602Z,7.70
2018-04-28T07:44:02.877Z,2.87
2018-04-28T07:46:32.394Z,2.80
2018-04-28T07:49:01.913Z,4.03
2018-04-28T07:51:31.444Z,2.20
2018-04-28T07:54:01.048Z,3.80
2018-04-28T07:56:30.498Z,6.47
2018-04-28T07:59:00.028Z,3.70
2018-04-28T08:01:29.725Z,2.73
2018-04-28T08:03:59.229Z,1.80
2018-04-28T08:06:28.726Z,7.77
2018-04-28T08:08:58.261Z,4.57
2018-04-28T08:11:27.811Z,3.77
2018-04-28T08:13:57.334Z,8.07
2018-04-28T08:16:26.854Z,8.90
2018-04-28T08:18:56.379Z,5.43
2018-04-28T08:21:25.882Z,8.20
2018-04-28T08:23:55.426Z,6.60
2018-04-28T08:26:24.942Z,6.90
2018-04-28T08:28:54.474Z,4.63
2018-04-28T08:31:24.000Z,3.17
2018-04-28T08:33:53.522Z,1.10
2018-04-28T08:36:23.043Z,3.37
2018-04-28T08:38:52.625Z,2.80
2018-04-28T08:41:22.124Z,3.00
2018-04-28T08:43:51.637Z,8.10
2018-04-28T08:46:21.179Z,1.50
2018-04-28T08:48:50.713Z,2.77
2018-04-28T08:51:20.219Z,2.83
2018-04-28T08:53:49.740Z,2.83
2018-04-28T08:56:19.277Z,3.13
2018-04-28T08:58:48.774Z,0.83
2018-04-28T09:01:18.302Z,3.27
2018-04-28T09:03:47.889Z,2.03
2018-04-28T09:06:17.322Z,3.93
2018-04-28T09:08:46.853Z,2.70
2018-04-28T09:11:16.606Z,2.40
2018-04-28T09:13:46.330Z,2.80
2018-04-28T09:16:16.046Z,5.73
2018-04-28T09:18:45.763Z,4.37
2018-04-28T09:21:15.504Z,4.67
2018-04-28T09:23:45.285Z,5.73
2018-04-28T09:26:15.016Z,2.40
2018-04-28T09:28:44.761Z,2.53
2018-04-28T09:31:14.467Z,0.97
2018-04-28T09:33:44.209Z,2.10
2018-04-28T09:36:13.928Z,1.97
2018-04-28T09:38:43.640Z,1.67
2018-04-28T09:41:13.355Z,3.20
2018-04-28T09:43:43.098Z,2.23
2018-04-28T09:46:12.811Z,2.63
2018-04-28T09:48:42.549Z,4.33
2018-04-28T09:51:12.266Z,1.83
2018-04-28T09:53:42.014Z,2.40
2018-04-28T09:56:11.761Z,2.57
2018-04-28T09:58:41.479Z,2.50
2018-04-28T10:01:13.854Z,3.17
2018-04-28T10:03:43.574Z,2.10
2018-04-28T10:06:13.303Z,2.17
2018-04-28T10:08:43.018Z,2.67
2018-04-28T10:11:12.738Z,1.80
2018-04-28T10:13:42.584Z,2.07
2018-04-28T10:16:12.284Z,1.80
2018-04-28T10:18:42.010Z,1.77
2018-04-28T10:21:11.840Z,1.97
2018-04-28T10:23:41.551Z,3.30
2018-04-28T10:26:11.277Z,2.03
2018-04-28T10:28:41.017Z,2.97
2018-04-28T10:31:10.742Z,2.93
2018-04-28T10:33:40.458Z,1.10
2018-04-28T10:36:10.188Z,3.33
2018-04-28T10:38:39.901Z,2.20
2018-04-28T10:41:09.634Z,2.77
2018-04-28T10:43:39.354Z,1.53
2018-04-28T10:46:09.073Z,2.63
2018-04-28T10:48:38.811Z,2.07
2018-04-28T10:51:08.520Z,2.00
2018-04-28T10:53:38.284Z,1.20
2018-04-28T10:56:07.962Z,2.90
2018-04-28T10:58:37.696Z,2.83
2018-04-28T11:01:07.512Z,3.80
2018-04-28T11:03:37.256Z,2.57
2018-04-28T11:06:06.986Z,2.13
2018-04-28T11:08:36.701Z,3.00
2018-04-28T11:11:06.446Z,1.57
2018-04-28T11:13:36.168Z,1.73
2018-04-28T11:16:05.890Z,11.83
2018-04-28T11:18:35.902Z,3.10
2018-04-28T11:21:05.633Z,2.50
2018-04-28T11:23:35.368Z,1.50
2018-04-28T11:26:05.090Z,3.30
2018-04-28T11:28:34.808Z,4.83
2018-04-28T11:31:04.685Z,1.97
2018-04-28T11:33:34.424Z,2.67
2018-04-28T11:36:04.143Z,1.73
2018-04-28T11:38:33.905Z,2.20
2018-04-28T11:41:03.622Z,2.60
2018-04-28T11:43:33.371Z,1.93
2018-04-28T11:46:03.078Z,1.90
2018-04-28T11:48:32.786Z,4.87
2018-04-28T11:51:02.514Z,2.67
2018-04-28T11:53:32.257Z,1.07
2018-04-28T11:56:01.981Z,1.67
2018-04-28T11:58:31.723Z,3.90
2018-04-28T12:01:01.439Z,1.23
2018-04-28T12:03:31.159Z,2.23
2018-04-28T12:06:00.883Z,3.60
2018-04-28T12:08:30.610Z,3.13
2018-04-28T12:11:00.341Z,2.37
2018-04-28T12:13:30.056Z,2.60
2018-04-28T12:15:59.777Z,2.70
2018-04-28T12:18:29.506Z,2.83
2018-04-28T12:20:59.286Z,2.87
2018-04-28T12:23:29.272Z,3.33
2018-04-28T12:25:58.959Z,6.33
2018-04-28T12:28:28.698Z,5.07
2018-04-28T12:30:58.425Z,4.80
2018-04-28T12:33:28.158Z,3.07
2018-04-28T12:35:57.926Z,2.93
2018-04-28T12:38:27.602Z,2.10
2018-04-28T12:40:57.361Z,3.53
2018-04-28T12:43:27.086Z,2.40
2018-04-28T12:45:56.790Z,1.70
2018-04-28T12:48:26.506Z,4.13
2018-04-28T12:50:56.236Z,6.43
2018-04-28T12:53:26.006Z,6.53
2018-04-28T12:55:55.730Z,3.30
2018-04-28T12:58:25.451Z,6.17
2018-04-28T13:00:55.182Z,2.60
2018-04-28T13:03:24.918Z,3.03
2018-04-28T13:05:54.658Z,5.93
2018-04-28T13:08:24.403Z,5.97
2018-04-28T13:10:54.146Z,4.40
2018-04-28T13:13:23.868Z,3.03
2018-04-28T13:15:53.593Z,4.37
2018-04-28T13:18:23.326Z,2.30
2018-04-28T13:20:53.085Z,2.17
2018-04-28T13:23:22.821Z,3.10
2018-04-28T13:25:52.552Z,4.57
2018-04-28T13:28:22.316Z,2.97
2018-04-28T13:30:52.054Z,1.67
2018-04-28T13:33:21.811Z,2.17
2018-04-28T13:35:51.551Z,2.57
2018-04-28T13:38:21.294Z,2.70
2018-04-28T13:40:51.023Z,3.13
2018-04-28T13:43:20.727Z,2.87
2018-04-28T13:45:50.449Z,3.33
2018-04-28T13:48:20.237Z,2.10
2018-04-28T13:50:49.897Z,6.37
2018-04-28T13:53:19.683Z,1.20
2018-04-28T13:55:49.416Z,4.73
2018-04-28T13:58:19.134Z,2.03
2018-04-28T14:00:48.887Z,3.67
2018-04-28T14:03:18.625Z,1.40
2018-04-28T14:05:48.352Z,2.37
2018-04-28T14:08:18.101Z,2.77
2018-04-28T14:10:47.811Z,6.23
2018-04-28T14:13:17.594Z,2.17
2018-04-28T14:15:47.325Z,4.17
2018-04-28T14:18:17.010Z,2.43
2018-04-28T14:20:46.749Z,1.40
2018-04-28T14:23:16.492Z,1.77
2018-04-28T14:25:46.198Z,7.10
2018-04-28T14:28:15.931Z,2.57
2018-04-28T14:30:45.694Z,4.83
2018-04-28T14:33:15.414Z,2.93
2018-04-28T14:35:45.145Z,1.57
2018-04-28T14:38:14.854Z,2.60
2018-04-28T14:40:44.601Z,2.97
2018-04-28T14:43:14.331Z,2.30
2018-04-28T14:45:44.061Z,1.20
2018-04-28T14:48:13.809Z,2.83
2018-04-28T14:50:43.547Z,1.97
2018-04-28T14:53:13.299Z,2.50
2018-04-28T14:55:43.034Z,4.17
2018-04-28T14:58:12.756Z,2.57
2018-04-28T15:00:42.499Z,2.47
2018-04-28T15:03:12.230Z,7.23
2018-04-28T15:05:41.971Z,2.23
2018-04-28T15:08:11.723Z,4.03
2018-04-28T15:10:41.444Z,3.17
2018-04-28T15:13:11.210Z,1.97
2018-04-28T15:15:40.934Z,1.90
2018-04-28T15:18:10.704Z,3.57
2018-04-28T15:20:40.414Z,1.80
2018-04-28T15:23:10.144Z,3.80
2018-04-28T15:25:39.871Z,1.57
2018-04-28T15:28:09.630Z,1.80
2018-04-28T15:30:39.425Z,5.23
2018-04-28T15:33:09.134Z,2.33
2018-04-28T15:35:38.859Z,1.53
2018-04-28T15:38:08.618Z,3.93
2018-04-28T15:40:38.315Z,1.97
2018-04-28T15:43:08.043Z,2.97
2018-04-28T15:45:37.761Z,4.53
2018-04-28T15:48:07.538Z,1.80
2018-04-28T15:50:37.269Z,2.67
2018-04-28T15:53:06.996Z,3.33
2018-04-28T15:55:36.704Z,1.20
2018-04-28T15:58:06.426Z,4.47
2018-04-28T16:00:36.169Z,2.07
2018-04-28T16:03:05.891Z,3.47
2018-04-28T16:05:35.618Z,3.63
2018-04-28T16:08:05.339Z,1.47
2018-04-28T16:10:35.058Z,1.63
2018-04-28T16:13:04.771Z,2.23
2018-04-28T16:15:34.495Z,1.57
2018-04-28T16:18:04.231Z,2.43
2018-04-28T16:20:34.208Z,2.40
2018-04-28T16:23:03.934Z,2.03
2018-04-28T16:25:33.686Z,6.23
2018-04-28T16:28:03.418Z,2.53
2018-04-28T16:30:33.147Z,4.80
2018-04-28T16:33:02.864Z,1.67
2018-04-28T16:35:32.582Z,1.20
2018-04-28T16:38:02.343Z,2.53
2018-04-28T16:40:32.059Z,3.80
2018-04-28T16:43:01.784Z,3.27
2018-04-28T16:45:31.562Z,0.97
2018-04-28T16:48:01.277Z,5.00
2018-04-28T16:50:31.026Z,4.63
2018-04-28T16:53:00.743Z,2.10
2018-04-28T16:55:30.465Z,2.97
2018-04-28T16:58:00.331Z,5.63
2018-04-28T17:00:30.997Z,2.30
2018-04-28T17:03:00.750Z,2.47
2018-04-28T17:05:30.482Z,7.20
2018-04-28T17:08:00.200Z,1.70
2018-04-28T17:10:29.926Z,2.67
2018-04-28T17:12:59.667Z,3.23
2018-04-28T17:15:29.410Z,1.83
2018-04-28T17:17:59.137Z,1.53
2018-04-28T17:20:28.859Z,3.27
2018-04-28T17:22:58.603Z,3.10
2018-04-28T17:25:28.325Z,6.30
2018-04-28T17:27:58.066Z,31.27
2018-04-28T17:30:28.437Z,54.33
2018-04-28T17:32:58.275Z,91.37
2018-04-28T17:35:27.998Z,85.37
2018-04-28T17:37:57.746Z,93.57
2018-04-28T17:40:27.462Z,85.00
2018-04-28T17:42:57.260Z,88.53
2018-04-28T17:45:26.931Z,68.10
2018-04-28T17:47:56.669Z,72.20
2018-04-28T17:50:26.533Z,68.40
2018-04-28T17:52:56.263Z,68.47
2018-04-28T17:55:26.047Z,61.73
2018-04-28T17:57:55.754Z,61.87
2018-04-28T18:00:25.489Z,68.83
2018-04-28T18:02:55.400Z,51.53
2018-04-28T18:05:25.134Z,49.00
2018-04-28T18:07:55.078Z,54.77
2018-04-28T18:10:24.812Z,54.87
2018-04-28T18:12:54.541Z,57.10
2018-04-28T18:15:24.288Z,64.47
2018-04-28T18:17:54.019Z,50.50
2018-04-28T18:20:23.770Z,46.57
2018-04-28T18:22:53.539Z,57.13
2018-04-28T18:25:23.270Z,42.80
2018-04-28T18:27:53.085Z,52.00
2018-04-28T18:30:22.818Z,42.53
2018-04-28T18:32:52.628Z,40.37
2018-04-28T18:35:22.349Z,43.97
2018-04-28T18:37:52.082Z,46.97
2018-04-28T18:40:21.814Z,48.60
2018-04-28T18:42:51.594Z,50.23
2018-04-28T18:45:21.303Z,47.43
2018-04-28T18:47:51.079Z,49.93
2018-04-28T18:50:20.806Z,56.23
2018-04-28T18:52:50.535Z,57.10
2018-04-28T18:55:20.315Z,55.53
2018-04-28T18:57:50.043Z,59.43
2018-04-28T19:00:19.867Z,57.60
2018-04-28T19:02:49.602Z,73.63
2018-04-28T19:05:19.342Z,63.03
2018-04-28T19:07:49.074Z,65.70
2018-04-28T19:10:18.839Z,68.30
2018-04-28T19:12:48.579Z,71.57
2018-04-28T19:15:18.338Z,76.67
2018-04-28T19:17:48.069Z,82.37
2018-04-28T19:20:17.871Z,76.13
2018-04-28T19:22:47.601Z,72.87
2018-04-28T19:25:17.344Z,86.13
2018-04-28T19:27:47.091Z,76.77
2018-04-28T19:30:16.925Z,75.23
2018-04-28T19:32:46.695Z,74.70
2018-04-28T19:35:16.494Z,81.50
2018-04-28T19:37:46.334Z,77.40
2018-04-28T19:40:16.077Z,72.80
2018-04-28T19:42:45.867Z,73.40
2018-04-28T19:45:15.673Z,73.17
2018-04-28T19:47:45.410Z,69.60
2018-04-28T19:50:15.247Z,84.97
2018-04-28T19:52:44.974Z,81.73
2018-04-28T19:55:15.192Z,65.03
2018-04-28T19:57:44.921Z,73.00
2018-04-28T20:00:14.658Z,70.47
2018-04-28T20:02:44.406Z,71.27
2018-04-28T20:05:14.935Z,66.33
2018-04-28T20:07:44.662Z,69.00
2018-04-28T20:10:14.406Z,57.83
2018-04-28T20:12:44.294Z,55.77
2018-04-28T20:15:14.913Z,52.67
2018-04-28T20:17:44.682Z,55.30
2018-04-28T20:20:14.469Z,58.63
2018-04-28T20:22:49.934Z,48.97
2018-04-28T20:25:22.291Z,54.20
2018-04-28T20:27:52.088Z,48.30
2018-04-28T20:30:21.834Z,49.93
2018-04-28T20:32:51.710Z,53.37
2018-04-28T20:35:21.452Z,47.23
2018-04-28T20:37:51.234Z,46.23
2018-04-28T20:40:20.954Z,47.17
2018-04-28T20:42:50.777Z,40.50
2018-04-28T20:45:20.455Z,42.30
2018-04-28T20:47:50.203Z,41.47
2018-04-28T20:50:19.939Z,40.70
2018-04-28T20:52:49.682Z,39.27
2018-04-28T20:55:19.419Z,40.17
2018-04-28T20:57:49.168Z,36.60
2018-04-28T21:00:19.000Z,33.03
2018-04-28T21:02:48.702Z,35.13
2018-04-28T21:05:18.479Z,33.03
2018-04-28T21:07:48.214Z,34.23
2018-04-28T21:10:17.950Z,35.97
2018-04-28T21:12:47.702Z,29.33
2018-04-28T21:15:17.434Z,26.27
2018-04-28T21:17:47.183Z,30.53
2018-04-28T21:20:16.930Z,22.73
2018-04-28T21:22:46.679Z,27.83
2018-04-28T21:25:16.414Z,27.33
2018-04-28T21:27:46.134Z,24.50
2018-04-28T21:30:16.635Z,20.70
2018-04-28T21:32:46.382Z,22.83
2018-04-28T21:35:16.142Z,23.43
2018-04-28T21:37:45.949Z,18.30
2018-04-28T21:40:15.618Z,23.77
2018-04-28T21:42:45.374Z,24.43
2018-04-28T21:45:15.114Z,23.83
2018-04-28T21:47:44.867Z,21.83
2018-04-28T21:50:14.590Z,19.77
2018-04-28T21:52:44.335Z,15.53
2018-04-28T21:55:14.054Z,16.37
2018-04-28T21:57:43.802Z,20.17
2018-04-28T22:00:13.534Z,14.70
2018-04-28T22:02:43.295Z,14.90
2018-04-28T22:05:13.023Z,17.30
2018-04-28T22:07:42.798Z,14.43
2018-04-28T22:10:12.544Z,17.00
2018-04-28T22:12:42.255Z,13.50
2018-04-28T22:15:12.033Z,14.73
2018-04-28T22:17:41.730Z,15.00
2018-04-28T22:20:11.467Z,11.53
2018-04-28T22:22:41.194Z,14.90
2018-04-28T22:25:10.936Z,13.10
2018-04-28T22:27:40.664Z,15.47
2018-04-28T22:30:10.425Z,11.13
2018-04-28T22:32:40.162Z,13.90
2018-04-28T22:35:09.949Z,12.40
2018-04-28T22:37:39.704Z,10.90
2018-04-28T22:40:09.434Z,13.93
2018-04-28T22:42:39.175Z,10.23
2018-04-28T22:45:08.906Z,9.13
2018-04-28T22:47:38.663Z,11.70
2018-04-28T22:50:08.389Z,9.97
2018-04-28T22:52:38.129Z,11.17
2018-04-28T22:55:07.859Z,12.00
2018-04-28T22:57:37.593Z,9.93
2018-04-28T23:00:07.326Z,11.37
2018-04-28T23:02:36.909Z,10.17
2018-04-28T23:05:06.642Z,9.27
2018-04-28T23:07:36.422Z,7.47
2018-04-28T23:10:06.150Z,9.23
2018-04-28T23:12:35.882Z,8.83
2018-04-28T23:15:05.627Z,7.87
2018-04-28T23:17:35.354Z,9.40
2018-04-28T23:20:05.090Z,6.93
2018-04-28T23:22:34.813Z,9.63
2018-04-28T23:25:04.561Z,10.90
2018-04-28T23:27:34.291Z,6.33
2018-04-28T23:30:04.017Z,6.93
2018-04-28T23:32:33.738Z,6.37
2018-04-28T23:35:03.471Z,7.37
2018-04-28T23:37:33.202Z,8.73
2018-04-28T23:40:02.933Z,7.93
2018-04-28T23:42:32.710Z,7.17
2018-04-28T23:45:02.407Z,8.43
2018-04-28T23:47:32.114Z,7.40
2018-04-28T23:50:01.841Z,9.07
2018-04-28T23:52:31.575Z,6.03
2018-04-28T23:55:01.322Z,7.90
2018-04-28T23:57:31.050Z,8.33
